Aviation Digital Data Service (ADDS)

Output produced by METARs form (0154 UTC 18 October 2017)
found at http://aviationweather.gov/adds/metars/
 
KSTS 180053Z 17007KT 9SM FU CLR 19/06 A3003 RMK AO2 SLP162 T01890061
KSTS 172341Z 1800/1824 17008KT 6SM FU SKC 
     FM180400 VRB03KT P6SM BKN200 
     FM181300 VRB03KT 2SM BR SCT200 
     FM181600 VRB03KT P6SM FEW200 
     FM182200 17006KT P6SM SKC